sensor_id;sensor_type;location;lat;lon;timestamp;temperature;humidity
9901;DHT22;4989;48.772;9.154;2023-06-22T00:24:09;26.40;77.40
9901;DHT22;4989;48.772;9.154;2023-06-22T00:29:11;25.50;80.80
9901;DHT22;4989;48.772;9.154;2023-06-22T00:34:13;25.60;80.30
9901;DHT22;4989;48.772;9.154;2023-06-22T00:39:15;25.30;81.80
9901;DHT22;4989;48.772;9.154;2023-06-22T00:44:18;25.00;83.10
9901;DHT22;4989;48.772;9.154;2023-06-22T00:49:21;25.40;81.90
9901;DHT22;4989;48.772;9.154;2023-06-22T00:54:24;25.70;80.50
9901;DHT22;4989;48.772;9.154;2023-06-22T00:59:28;25.80;80.20
9901;DHT22;4989;48.772;9.154;2023-06-22T01:04:37;25.90;80.20
9901;DHT22;4989;48.772;9.154;2023-06-22T01:15:14;25.60;81.20
9901;DHT22;4989;48.772;9.154;2023-06-22T01:20:23;25.80;80.10
9901;DHT22;4989;48.772;9.154;2023-06-22T01:25:36;25.70;80.80
9901;DHT22;4989;48.772;9.154;2023-06-22T01:30:49;25.70;80.20
9901;DHT22;4989;48.772;9.154;2023-06-22T01:36:03;25.60;81.60
9901;DHT22;4989;48.772;9.154;2023-06-22T01:41:09;24.70;84.90
9901;DHT22;4989;48.772;9.154;2023-06-22T01:46:14;25.10;83.50
9901;DHT22;4989;48.772;9.154;2023-06-22T01:51:17;25.30;82.70
9901;DHT22;4989;48.772;9.154;2023-06-22T01:56:19;25.40;82.60
9901;DHT22;4989;48.772;9.154;2023-06-22T02:01:26;25.50;82.00
9901;DHT22;4989;48.772;9.154;2023-06-22T02:06:37;25.20;82.80
9901;DHT22;4989;48.772;9.154;2023-06-22T02:11:42;25.50;82.00
9901;DHT22;4989;48.772;9.154;2023-06-22T02:16:49;25.60;81.50
9901;DHT22;4989;48.772;9.154;2023-06-22T02:21:53;25.70;81.40
9901;DHT22;4989;48.772;9.154;2023-06-22T02:26:55;25.60;81.90
9901;DHT22;4989;48.772;9.154;2023-06-22T02:31:57;25.50;82.00
9901;DHT22;4989;48.772;9.154;2023-06-22T02:37:00;25.60;81.90
9901;DHT22;4989;48.772;9.154;2023-06-22T02:42:04;25.50;82.60
9901;DHT22;4989;48.772;9.154;2023-06-22T02:47:06;25.00;83.90
9901;DHT22;4989;48.772;9.154;2023-06-22T02:52:09;25.20;83.40
9901;DHT22;4989;48.772;9.154;2023-06-22T02:57:12;25.40;82.70
9901;DHT22;4989;48.772;9.154;2023-06-22T03:02:17;25.50;82.30
9901;DHT22;4989;48.772;9.154;2023-06-22T03:07:20;25.50;81.80
9901;DHT22;4989;48.772;9.154;2023-06-22T03:12:24;25.50;82.20
9901;DHT22;4989;48.772;9.154;2023-06-22T03:17:29;25.50;81.90
9901;DHT22;4989;48.772;9.154;2023-06-22T03:22:31;25.20;83.50
9901;DHT22;4989;48.772;9.154;2023-06-22T03:27:33;25.10;83.60
9901;DHT22;4989;48.772;9.154;2023-06-22T03:32:36;25.20;83.70
9901;DHT22;4989;48.772;9.154;2023-06-22T03:37:40;24.60;85.40
9901;DHT22;4989;48.772;9.154;2023-06-22T03:42:42;24.90;85.00
9901;DHT22;4989;48.772;9.154;2023-06-22T03:47:44;24.70;85.70
9901;DHT22;4989;48.772;9.154;2023-06-22T03:52:47;25.00;85.50
9901;DHT22;4989;48.772;9.154;2023-06-22T03:57:49;25.00;84.40
9901;DHT22;4989;48.772;9.154;2023-06-22T04:02:51;25.00;84.50
9901;DHT22;4989;48.772;9.154;2023-06-22T04:07:54;25.10;83.80
9901;DHT22;4989;48.772;9.154;2023-06-22T04:12:56;25.10;83.70
9901;DHT22;4989;48.772;9.154;2023-06-22T04:17:58;24.60;85.80
9901;DHT22;4989;48.772;9.154;2023-06-22T04:23:00;24.80;85.10
9901;DHT22;4989;48.772;9.154;2023-06-22T04:28:03;25.00;84.40
9901;DHT22;4989;48.772;9.154;2023-06-22T04:33:06;25.10;83.50
9901;DHT22;4989;48.772;9.154;2023-06-22T04:38:08;25.10;83.00
9901;DHT22;4989;48.772;9.154;2023-06-22T04:43:10;25.20;82.60
9901;DHT22;4989;48.772;9.154;2023-06-22T04:48:12;25.40;82.20
9901;DHT22;4989;48.772;9.154;2023-06-22T04:53:18;25.40;82.00
9901;DHT22;4989;48.772;9.154;2023-06-22T04:58:20;25.40;82.00
9901;DHT22;4989;48.772;9.154;2023-06-22T05:03:25;25.50;81.60
9901;DHT22;4989;48.772;9.154;2023-06-22T05:08:28;25.50;81.30
9901;DHT22;4989;48.772;9.154;2023-06-22T05:13:30;25.50;81.50
9901;DHT22;4989;48.772;9.154;2023-06-22T05:18:33;25.60;81.10
9901;DHT22;4989;48.772;9.154;2023-06-22T05:23:37;25.60;80.90
9901;DHT22;4989;48.772;9.154;2023-06-22T05:28:39;25.60;80.60
9901;DHT22;4989;48.772;9.154;2023-06-22T05:33:42;25.70;81.00
9901;DHT22;4989;48.772;9.154;2023-06-22T05:38:46;25.70;80.20
9901;DHT22;4989;48.772;9.154;2023-06-22T05:43:48;25.70;80.20
9901;DHT22;4989;48.772;9.154;2023-06-22T05:48:50;25.70;80.20
9901;DHT22;4989;48.772;9.154;2023-06-22T05:53:52;25.70;80.00
9901;DHT22;4989;48.772;9.154;2023-06-22T05:58:54;25.70;79.90
9901;DHT22;4989;48.772;9.154;2023-06-22T06:03:57;25.70;80.10
9901;DHT22;4989;48.772;9.154;2023-06-22T06:08:59;25.60;80.10
9901;DHT22;4989;48.772;9.154;2023-06-22T06:14:01;25.60;80.00
9901;DHT22;4989;48.772;9.154;2023-06-22T06:19:03;25.60;79.90
9901;DHT22;4989;48.772;9.154;2023-06-22T06:24:06;25.70;79.70
9901;DHT22;4989;48.772;9.154;2023-06-22T06:29:08;25.70;79.60
9901;DHT22;4989;48.772;9.154;2023-06-22T06:34:10;25.90;79.30
9901;DHT22;4989;48.772;9.154;2023-06-22T06:39:12;26.00;78.90
9901;DHT22;4989;48.772;9.154;2023-06-22T06:44:15;25.90;79.10
9901;DHT22;4989;48.772;9.154;2023-06-22T06:49:17;25.90;79.00
9901;DHT22;4989;48.772;9.154;2023-06-22T06:54:19;25.90;79.20
9901;DHT22;4989;48.772;9.154;2023-06-22T06:59:22;26.10;78.70
9901;DHT22;4989;48.772;9.154;2023-06-22T07:04:24;26.20;78.40
9901;DHT22;4989;48.772;9.154;2023-06-22T07:09:27;26.30;78.20
9901;DHT22;4989;48.772;9.154;2023-06-22T07:14:29;26.50;77.70
9901;DHT22;4989;48.772;9.154;2023-06-22T07:19:33;26.60;77.00
9901;DHT22;4989;48.772;9.154;2023-06-22T07:24:35;26.50;77.10
9901;DHT22;4989;48.772;9.154;2023-06-22T07:29:38;26.60;77.00
9901;DHT22;4989;48.772;9.154;2023-06-22T07:34:44;26.70;76.70
9901;DHT22;4989;48.772;9.154;2023-06-22T07:39:46;26.90;76.00
9901;DHT22;4989;48.772;9.154;2023-06-22T07:44:48;27.10;75.50
9901;DHT22;4989;48.772;9.154;2023-06-22T07:49:52;27.30;75.70
9901;DHT22;4989;48.772;9.154;2023-06-22T07:54:56;27.30;74.80
9901;DHT22;4989;48.772;9.154;2023-06-22T08:00:04;27.50;74.40
9901;DHT22;4989;48.772;9.154;2023-06-22T08:05:17;27.50;74.10
9901;DHT22;4989;48.772;9.154;2023-06-22T08:10:23;27.40;73.40
9901;DHT22;4989;48.772;9.154;2023-06-22T08:15:26;27.50;73.00
9901;DHT22;4989;48.772;9.154;2023-06-22T08:20:30;27.80;73.50
9901;DHT22;4989;48.772;9.154;2023-06-22T08:25:34;28.10;71.70
9901;DHT22;4989;48.772;9.154;2023-06-22T08:30:36;28.00;71.20
9901;DHT22;4989;48.772;9.154;2023-06-22T08:35:38;27.90;71.80
9901;DHT22;4989;48.772;9.154;2023-06-22T08:40:41;27.90;71.80
9901;DHT22;4989;48.772;9.154;2023-06-22T08:45:43;28.10;71.40
9901;DHT22;4989;48.772;9.154;2023-06-22T08:50:46;28.30;70.40
9901;DHT22;4989;48.772;9.154;2023-06-22T08:55:48;28.90;68.70
9901;DHT22;4989;48.772;9.154;2023-06-22T09:00:52;29.20;68.10
9901;DHT22;4989;48.772;9.154;2023-06-22T09:05:55;29.60;66.20
9901;DHT22;4989;48.772;9.154;2023-06-22T09:10:57;29.20;66.40
9901;DHT22;4989;48.772;9.154;2023-06-22T09:16:00;29.30;67.30
9901;DHT22;4989;48.772;9.154;2023-06-22T09:21:02;28.90;67.20
9901;DHT22;4989;48.772;9.154;2023-06-22T09:26:05;29.30;67.10
9901;DHT22;4989;48.772;9.154;2023-06-22T09:31:08;30.20;64.80
9901;DHT22;4989;48.772;9.154;2023-06-22T09:36:10;30.10;64.10
9901;DHT22;4989;48.772;9.154;2023-06-22T09:41:12;30.40;64.40
9901;DHT22;4989;48.772;9.154;2023-06-22T09:46:17;31.00;62.50
9901;DHT22;4989;48.772;9.154;2023-06-22T09:51:20;31.10;62.40
9901;DHT22;4989;48.772;9.154;2023-06-22T09:56:23;31.50;61.00
9901;DHT22;4989;48.772;9.154;2023-06-22T10:01:28;31.60;61.70
9901;DHT22;4989;48.772;9.154;2023-06-22T10:06:30;31.80;60.90
9901;DHT22;4989;48.772;9.154;2023-06-22T10:11:33;32.00;60.10
9901;DHT22;4989;48.772;9.154;2023-06-22T10:16:37;31.70;60.50
9901;DHT22;4989;48.772;9.154;2023-06-22T10:21:39;31.30;60.90
9901;DHT22;4989;48.772;9.154;2023-06-22T10:26:41;31.50;61.30
9901;DHT22;4989;48.772;9.154;2023-06-22T10:31:43;32.00;60.60
9901;DHT22;4989;48.772;9.154;2023-06-22T10:36:45;32.00;60.20
9901;DHT22;4989;48.772;9.154;2023-06-22T10:41:50;32.50;58.20
9901;DHT22;4989;48.772;9.154;2023-06-22T10:46:52;33.20;57.40
9901;DHT22;4989;48.772;9.154;2023-06-22T10:51:55;32.70;56.40
9901;DHT22;4989;48.772;9.154;2023-06-22T10:56:57;32.40;58.60
9901;DHT22;4989;48.772;9.154;2023-06-22T11:01:59;31.90;58.60
9901;DHT22;4989;48.772;9.154;2023-06-22T11:07:02;31.90;58.80
9901;DHT22;4989;48.772;9.154;2023-06-22T11:12:05;31.70;59.60
9901;DHT22;4989;48.772;9.154;2023-06-22T11:17:08;31.70;59.90
9901;DHT22;4989;48.772;9.154;2023-06-22T11:22:10;31.50;60.20
9901;DHT22;4989;48.772;9.154;2023-06-22T11:27:12;31.40;61.00
9901;DHT22;4989;48.772;9.154;2023-06-22T11:32:15;31.50;61.00
9901;DHT22;4989;48.772;9.154;2023-06-22T11:37:17;31.60;60.50
9901;DHT22;4989;48.772;9.154;2023-06-22T11:42:19;31.70;59.60
9901;DHT22;4989;48.772;9.154;2023-06-22T11:47:21;31.90;59.30
9901;DHT22;4989;48.772;9.154;2023-06-22T11:52:23;31.70;58.30
9901;DHT22;4989;48.772;9.154;2023-06-22T11:57:26;31.70;59.60
9901;DHT22;4989;48.772;9.154;2023-06-22T12:02:28;31.30;60.50
9901;DHT22;4989;48.772;9.154;2023-06-22T12:07:31;31.40;59.00
9901;DHT22;4989;48.772;9.154;2023-06-22T12:12:33;31.80;59.00
9901;DHT22;4989;48.772;9.154;2023-06-22T12:17:35;31.80;60.10
9901;DHT22;4989;48.772;9.154;2023-06-22T12:22:37;31.60;59.70
9901;DHT22;4989;48.772;9.154;2023-06-22T12:27:39;31.70;61.50
9901;DHT22;4989;48.772;9.154;2023-06-22T12:32:42;31.80;60.80
9901;DHT22;4989;48.772;9.154;2023-06-22T12:37:44;31.40;61.00
9901;DHT22;4989;48.772;9.154;2023-06-22T12:42:47;31.30;62.00
9901;DHT22;4989;48.772;9.154;2023-06-22T12:47:49;31.40;61.90
9901;DHT22;4989;48.772;9.154;2023-06-22T12:52:52;31.30;62.40
9901;DHT22;4989;48.772;9.154;2023-06-22T12:57:54;31.30;62.20
9901;DHT22;4989;48.772;9.154;2023-06-22T13:02:57;31.30;62.20
9901;DHT22;4989;48.772;9.154;2023-06-22T13:07:59;31.40;62.30
9901;DHT22;4989;48.772;9.154;2023-06-22T13:13:01;31.40;61.70
9901;DHT22;4989;48.772;9.154;2023-06-22T13:18:04;31.40;61.90
9901;DHT22;4989;48.772;9.154;2023-06-22T13:23:06;31.30;63.20
9901;DHT22;4989;48.772;9.154;2023-06-22T13:28:08;31.10;63.40
9901;DHT22;4989;48.772;9.154;2023-06-22T13:33:28;31.20;63.50
9901;DHT22;4989;48.772;9.154;2023-06-22T13:38:30;31.50;63.70
9901;DHT22;4989;48.772;9.154;2023-06-22T13:43:34;31.50;63.30
9901;DHT22;4989;48.772;9.154;2023-06-22T13:48:36;31.30;63.10
9901;DHT22;4989;48.772;9.154;2023-06-22T13:53:38;31.50;63.30
9901;DHT22;4989;48.772;9.154;2023-06-22T13:58:40;31.70;61.80
9901;DHT22;4989;48.772;9.154;2023-06-22T14:03:42;31.70;61.90
9901;DHT22;4989;48.772;9.154;2023-06-22T14:08:47;31.80;60.90
9901;DHT22;4989;48.772;9.154;2023-06-22T14:13:49;31.90;61.20
9901;DHT22;4989;48.772;9.154;2023-06-22T14:18:51;32.30;60.50
9901;DHT22;4989;48.772;9.154;2023-06-22T14:23:57;33.00;59.10
9901;DHT22;4989;48.772;9.154;2023-06-22T14:28:59;33.00;57.90
9901;DHT22;4989;48.772;9.154;2023-06-22T14:34:01;32.40;58.60
9901;DHT22;4989;48.772;9.154;2023-06-22T14:39:05;32.20;56.60
9901;DHT22;4989;48.772;9.154;2023-06-22T14:44:07;32.10;56.10
9901;DHT22;4989;48.772;9.154;2023-06-22T14:49:10;32.40;54.40
9901;DHT22;4989;48.772;9.154;2023-06-22T14:54:12;32.50;56.00
9901;DHT22;4989;48.772;9.154;2023-06-22T14:59:14;32.70;54.20
9901;DHT22;4989;48.772;9.154;2023-06-22T15:04:16;32.60;53.10
9901;DHT22;4989;48.772;9.154;2023-06-22T15:09:19;32.20;51.60
9901;DHT22;4989;48.772;9.154;2023-06-22T15:14:21;32.10;52.50
9901;DHT22;4989;48.772;9.154;2023-06-22T15:19:23;32.20;47.60
9901;DHT22;4989;48.772;9.154;2023-06-22T15:24:26;32.20;47.40
9901;DHT22;4989;48.772;9.154;2023-06-22T15:29:28;32.30;51.60
9901;DHT22;4989;48.772;9.154;2023-06-22T15:34:36;32.30;47.00
9901;DHT22;4989;48.772;9.154;2023-06-22T15:39:38;32.30;47.50
9901;DHT22;4989;48.772;9.154;2023-06-22T15:44:40;32.10;46.80
9901;DHT22;4989;48.772;9.154;2023-06-22T15:49:42;32.10;48.90
9901;DHT22;4989;48.772;9.154;2023-06-22T15:54:45;32.20;46.50
9901;DHT22;4989;48.772;9.154;2023-06-22T15:59:48;32.20;50.40
9901;DHT22;4989;48.772;9.154;2023-06-22T16:04:50;31.90;47.50
9901;DHT22;4989;48.772;9.154;2023-06-22T16:09:52;31.80;50.50
9901;DHT22;4989;48.772;9.154;2023-06-22T16:14:55;31.60;47.50
9901;DHT22;4989;48.772;9.154;2023-06-22T16:19:57;31.50;51.30
9901;DHT22;4989;48.772;9.154;2023-06-22T16:25:01;31.10;47.70
9901;DHT22;4989;48.772;9.154;2023-06-22T16:30:05;31.00;49.50
9901;DHT22;4989;48.772;9.154;2023-06-22T16:35:08;30.70;48.60
9901;DHT22;4989;48.772;9.154;2023-06-22T16:40:11;30.80;49.20
9901;DHT22;4989;48.772;9.154;2023-06-22T16:45:14;30.90;49.70
9901;DHT22;4989;48.772;9.154;2023-06-22T16:50:19;30.70;50.00
9901;DHT22;4989;48.772;9.154;2023-06-22T16:55:21;30.70;50.00
9901;DHT22;4989;48.772;9.154;2023-06-22T17:00:26;30.50;50.60
9901;DHT22;4989;48.772;9.154;2023-06-22T17:05:30;30.40;50.90
9901;DHT22;4989;48.772;9.154;2023-06-22T17:10:33;30.30;50.70
9901;DHT22;4989;48.772;9.154;2023-06-22T17:15:36;30.30;52.10
9901;DHT22;4989;48.772;9.154;2023-06-22T17:20:40;30.10;52.50
9901;DHT22;4989;48.772;9.154;2023-06-22T17:25:43;30.00;51.60
9901;DHT22;4989;48.772;9.154;2023-06-22T17:31:08;30.00;53.20
9901;DHT22;4989;48.772;9.154;2023-06-22T17:36:13;29.90;51.90
9901;DHT22;4989;48.772;9.154;2023-06-22T17:46:18;29.70;54.10
9901;DHT22;4989;48.772;9.154;2023-06-22T17:56:51;28.70;53.10
9901;DHT22;4989;48.772;9.154;2023-06-22T18:01:54;28.60;53.20
9901;DHT22;4989;48.772;9.154;2023-06-22T18:06:56;28.50;53.80
9901;DHT22;4989;48.772;9.154;2023-06-22T18:11:59;28.30;54.40
9901;DHT22;4989;48.772;9.154;2023-06-22T18:17:05;28.10;54.10
9901;DHT22;4989;48.772;9.154;2023-06-22T18:22:08;27.80;54.80
9901;DHT22;4989;48.772;9.154;2023-06-22T18:27:11;27.40;55.50
9901;DHT22;4989;48.772;9.154;2023-06-22T18:32:16;27.50;55.60
9901;DHT22;4989;48.772;9.154;2023-06-22T18:37:19;27.60;56.40
9901;DHT22;4989;48.772;9.154;2023-06-22T18:42:22;27.20;57.20
9901;DHT22;4989;48.772;9.154;2023-06-22T18:47:31;27.20;57.40
9901;DHT22;4989;48.772;9.154;2023-06-22T18:52:34;26.50;59.30
9901;DHT22;4989;48.772;9.154;2023-06-22T18:57:40;26.50;59.50
9901;DHT22;4989;48.772;9.154;2023-06-22T19:02:44;26.30;59.90
9901;DHT22;4989;48.772;9.154;2023-06-22T19:13:29;26.60;59.60
9901;DHT22;4989;48.772;9.154;2023-06-22T19:18:38;26.60;59.80
9901;DHT22;4989;48.772;9.154;2023-06-22T19:23:44;26.80;62.00
9901;DHT22;4989;48.772;9.154;2023-06-22T19:28:53;26.80;59.30
9901;DHT22;4989;48.772;9.154;2023-06-22T19:34:05;26.40;60.80
9901;DHT22;4989;48.772;9.154;2023-06-22T19:39:07;26.20;61.40
9901;DHT22;4989;48.772;9.154;2023-06-22T19:44:10;25.60;63.00
9901;DHT22;4989;48.772;9.154;2023-06-22T19:49:15;25.40;64.50
9901;DHT22;4989;48.772;9.154;2023-06-22T19:54:19;25.10;65.90
9901;DHT22;4989;48.772;9.154;2023-06-22T19:59:22;25.00;66.90
9901;DHT22;4989;48.772;9.154;2023-06-22T20:04:26;24.90;67.70
9901;DHT22;4989;48.772;9.154;2023-06-22T20:09:28;24.80;68.50
9901;DHT22;4989;48.772;9.154;2023-06-22T20:14:34;24.60;69.20
9901;DHT22;4989;48.772;9.154;2023-06-22T20:19:37;24.60;69.90
9901;DHT22;4989;48.772;9.154;2023-06-22T20:24:44;24.70;70.40
9901;DHT22;4989;48.772;9.154;2023-06-22T20:29:48;24.80;71.00
9901;DHT22;4989;48.772;9.154;2023-06-22T20:34:50;24.70;71.70
9901;DHT22;4989;48.772;9.154;2023-06-22T20:39:52;24.50;73.10
9901;DHT22;4989;48.772;9.154;2023-06-22T20:44:54;24.70;73.60
9901;DHT22;4989;48.772;9.154;2023-06-22T20:49:57;24.90;72.80
9901;DHT22;4989;48.772;9.154;2023-06-22T20:55:01;24.70;73.90
9901;DHT22;4989;48.772;9.154;2023-06-22T21:00:03;25.10;73.10
9901;DHT22;4989;48.772;9.154;2023-06-22T21:05:10;25.10;73.00
9901;DHT22;4989;48.772;9.154;2023-06-22T21:10:14;25.10;72.90
9901;DHT22;4989;48.772;9.154;2023-06-22T21:15:16;25.40;72.40
9901;DHT22;4989;48.772;9.154;2023-06-22T21:20:19;26.10;71.00
9901;DHT22;4989;48.772;9.154;2023-06-22T21:25:21;26.40;70.50
9901;DHT22;4989;48.772;9.154;2023-06-22T21:30:23;25.30;72.50
9901;DHT22;4989;48.772;9.154;2023-06-22T21:35:26;25.00;73.10
9901;DHT22;4989;48.772;9.154;2023-06-22T21:40:29;24.50;73.10
9901;DHT22;4989;48.772;9.154;2023-06-22T21:45:31;24.40;72.90
9901;DHT22;4989;48.772;9.154;2023-06-22T21:50:36;23.80;74.00
9901;DHT22;4989;48.772;9.154;2023-06-22T21:55:38;23.70;74.80
9901;DHT22;4989;48.772;9.154;2023-06-22T22:00:41;23.80;74.40
9901;DHT22;4989;48.772;9.154;2023-06-22T22:05:43;23.80;73.80
9901;DHT22;4989;48.772;9.154;2023-06-22T22:10:47;23.90;73.70
9901;DHT22;4989;48.772;9.154;2023-06-22T22:15:49;24.30;72.40
9901;DHT22;4989;48.772;9.154;2023-06-22T22:20:52;23.80;73.30
9901;DHT22;4989;48.772;9.154;2023-06-22T22:25:55;24.00;75.10
9901;DHT22;4989;48.772;9.154;2023-06-22T22:30:57;23.90;75.10
9901;DHT22;4989;48.772;9.154;2023-06-22T22:36:01;23.70;73.60
9901;DHT22;4989;48.772;9.154;2023-06-22T22:41:07;23.50;74.60
9901;DHT22;4989;48.772;9.154;2023-06-22T22:46:09;23.20;77.00
9901;DHT22;4989;48.772;9.154;2023-06-22T22:51:11;22.80;77.20
9901;DHT22;4989;48.772;9.154;2023-06-22T22:56:13;22.80;77.50
9901;DHT22;4989;48.772;9.154;2023-06-22T23:01:16;22.40;78.90
9901;DHT22;4989;48.772;9.154;2023-06-22T23:06:18;22.80;78.40
9901;DHT22;4989;48.772;9.154;2023-06-22T23:11:24;22.60;78.70
9901;DHT22;4989;48.772;9.154;2023-06-22T23:16:29;22.40;79.70
9901;DHT22;4989;48.772;9.154;2023-06-22T23:21:31;22.60;79.10
9901;DHT22;4989;48.772;9.154;2023-06-22T23:26:34;22.60;79.70
9901;DHT22;4989;48.772;9.154;2023-06-22T23:31:36;22.90;78.80
9901;DHT22;4989;48.772;9.154;2023-06-22T23:36:39;22.80;80.60
9901;DHT22;4989;48.772;9.154;2023-06-22T23:41:41;22.30;81.70
9901;DHT22;4989;48.772;9.154;2023-06-22T23:46:44;22.50;81.80
9901;DHT22;4989;48.772;9.154;2023-06-22T23:51:46;22.50;82.30
9901;DHT22;4989;48.772;9.154;2023-06-22T23:56:51;22.20;83.50
